createdAt,value
2022-11-06T00:00:36.934Z,96751.91
2022-11-06T00:03:05.883Z,96758.78
2022-11-06T00:05:51.860Z,96766.22
2022-11-06T00:08:30.258Z,96764.06
2022-11-06T00:10:58.867Z,96771.00
2022-11-06T00:13:27.429Z,96764.72
2022-11-06T00:15:55.863Z,96764.09
2022-11-06T00:18:27.280Z,96761.06
2022-11-06T00:20:55.619Z,96762.66
2022-11-06T00:23:23.960Z,96761.97
2022-11-06T00:25:56.634Z,96763.06
2022-11-06T00:28:25.123Z,96758.63
2022-11-06T00:31:02.150Z,96750.53
2022-11-06T00:33:30.437Z,96752.84
2022-11-06T00:35:59.030Z,96752.53
2022-11-06T00:38:27.801Z,96753.56
2022-11-06T00:40:57.697Z,96754.75
2022-11-06T00:43:26.008Z,96750.78
2022-11-06T00:45:54.658Z,96742.81
2022-11-06T00:48:22.915Z,96746.78
2022-11-06T00:50:51.464Z,96744.19
2022-11-06T00:53:19.817Z,96742.84
2022-11-06T00:55:48.094Z,96745.13
2022-11-06T00:58:18.112Z,96753.75
2022-11-06T01:00:46.390Z,96749.22
2022-11-06T01:03:14.694Z,96758.94
2022-11-06T01:05:43.058Z,96748.97
2022-11-06T01:08:11.677Z,96744.41
2022-11-06T01:10:40.147Z,96745.72
2022-11-06T01:13:08.449Z,96746.19
2022-11-06T01:15:38.558Z,96743.06
2022-11-06T01:18:06.855Z,96736.44
2022-11-06T01:20:35.308Z,96740.72
2022-11-06T01:23:03.673Z,96739.16
2022-11-06T01:25:32.226Z,96735.41
2022-11-06T01:28:00.482Z,96735.00
2022-11-06T01:30:28.740Z,96726.69
2022-11-06T01:32:58.349Z,96725.16
2022-11-06T01:35:26.607Z,96727.09
2022-11-06T01:37:54.893Z,96717.09
2022-11-06T01:40:23.124Z,96718.47
2022-11-06T01:42:51.402Z,96721.41
2022-11-06T01:45:28.415Z,96725.03
2022-11-06T01:47:58.354Z,96720.34
2022-11-06T01:50:26.941Z,96716.94
2022-11-06T01:52:55.225Z,96708.69
2022-11-06T01:55:26.643Z,96716.09
2022-11-06T01:57:56.481Z,96713.34
2022-11-06T02:00:26.191Z,96713.97
2022-11-06T02:02:54.570Z,96711.31
2022-11-06T02:05:24.295Z,96706.84
2022-11-06T02:07:53.268Z,96706.34
2022-11-06T02:10:21.519Z,96711.59
2022-11-06T02:12:58.077Z,96717.97
2022-11-06T02:15:32.795Z,96711.44
2022-11-06T02:18:11.552Z,96698.31
2022-11-06T02:20:48.040Z,96704.72
2022-11-06T02:23:39.603Z,96697.69
2022-11-06T02:26:20.856Z,96705.53
2022-11-06T02:28:52.953Z,96698.84
2022-11-06T02:31:26.112Z,96703.13
2022-11-06T02:33:57.016Z,96698.75
2022-11-06T02:36:30.124Z,96699.53
2022-11-06T02:39:00.270Z,96695.13
2022-11-06T02:41:33.217Z,96695.19
2022-11-06T02:44:04.831Z,96692.78
2022-11-06T02:46:35.488Z,96692.69
2022-11-06T02:49:04.682Z,96682.50
2022-11-06T02:51:34.472Z,96687.66
2022-11-06T02:54:03.951Z,96683.94
2022-11-06T02:56:37.031Z,96684.13
2022-11-06T02:59:09.956Z,96685.13
2022-11-06T03:01:40.976Z,96680.22
2022-11-06T03:04:13.290Z,96681.16
2022-11-06T03:06:44.969Z,96682.72
2022-11-06T03:09:16.010Z,96678.19
2022-11-06T03:11:44.385Z,96681.50
2022-11-06T03:14:19.751Z,96683.66
2022-11-06T03:16:54.558Z,96679.72
2022-11-06T03:19:27.794Z,96676.34
2022-11-06T03:22:02.171Z,96679.13
2022-11-06T03:24:33.343Z,96674.69
2022-11-06T03:27:07.247Z,96680.56
2022-11-06T03:29:40.487Z,96670.97
2022-11-06T03:32:16.811Z,96680.41
2022-11-06T03:34:51.649Z,96685.28
2022-11-06T03:37:34.421Z,96684.06
2022-11-06T03:40:05.153Z,96689.06
2022-11-06T03:42:33.573Z,96686.22
2022-11-06T03:45:05.335Z,96689.56
2022-11-06T03:47:35.471Z,96686.41
2022-11-06T03:50:08.101Z,96691.69
2022-11-06T03:52:42.536Z,96688.16
2022-11-06T03:55:16.168Z,96682.63
2022-11-06T03:57:46.404Z,96689.06
2022-11-06T04:00:17.143Z,96688.63
2022-11-06T04:02:46.710Z,96690.03
2022-11-06T04:05:17.431Z,96686.00
2022-11-06T04:08:08.565Z,96677.50
2022-11-06T04:11:05.937Z,96683.06
2022-11-06T04:13:53.170Z,96684.44
2022-11-06T04:16:23.697Z,96675.34
2022-11-06T04:18:52.087Z,96674.16
2022-11-06T04:21:28.125Z,96668.34
2022-11-06T04:24:22.204Z,96671.53
2022-11-06T04:26:59.834Z,96676.47
2022-11-06T04:29:36.138Z,96674.78
2022-11-06T04:32:11.562Z,96675.75
2022-11-06T04:34:44.891Z,96669.75
2022-11-06T04:37:18.316Z,96662.53
2022-11-06T04:39:53.413Z,96661.41
2022-11-06T04:42:27.259Z,96668.53
2022-11-06T04:44:59.968Z,96658.94
2022-11-06T04:47:29.835Z,96654.78
2022-11-06T04:50:00.312Z,96652.56
2022-11-06T04:52:29.910Z,96652.56
2022-11-06T04:54:59.456Z,96652.41
2022-11-06T04:57:28.089Z,96654.53
2022-11-06T04:59:56.988Z,96651.38
2022-11-06T05:02:25.701Z,96645.69
2022-11-06T05:04:55.429Z,96640.69
2022-11-06T05:07:24.279Z,96646.78
2022-11-06T05:09:52.585Z,96647.94
2022-11-06T05:12:20.904Z,96645.19
2022-11-06T05:14:49.287Z,96637.25
2022-11-06T05:17:17.604Z,96632.72
2022-11-06T05:19:45.896Z,96637.75
2022-11-06T05:22:33.210Z,96632.28
2022-11-06T05:25:01.597Z,96621.91
2022-11-06T05:27:30.003Z,96625.16
2022-11-06T05:29:58.305Z,96616.38
2022-11-06T05:32:26.652Z,96613.03
2022-11-06T05:34:54.987Z,96614.00
2022-11-06T05:37:24.788Z,96616.03
2022-11-06T05:39:53.095Z,96617.28
2022-11-06T05:42:21.553Z,96624.84
2022-11-06T05:44:49.852Z,96615.59
2022-11-06T05:47:18.130Z,96622.22
2022-11-06T05:49:46.411Z,96625.25
2022-11-06T05:52:14.732Z,96623.06
2022-11-06T05:54:44.413Z,96616.22
2022-11-06T05:57:12.735Z,96627.28
2022-11-06T05:59:41.026Z,96623.47
2022-11-06T06:02:09.554Z,96630.34
2022-11-06T06:04:37.959Z,96628.31
2022-11-06T06:07:06.275Z,96628.09
2022-11-06T06:09:34.594Z,96616.06
2022-11-06T06:12:04.705Z,96615.69
2022-11-06T06:14:32.958Z,96614.13
2022-11-06T06:17:01.232Z,96609.91
2022-11-06T06:19:29.491Z,96599.56
2022-11-06T06:21:57.755Z,96606.66
2022-11-06T06:24:26.189Z,96603.53
2022-11-06T06:26:54.492Z,96599.97
2022-11-06T06:29:24.163Z,96594.72
2022-11-06T06:31:52.509Z,96598.00
2022-11-06T06:34:20.908Z,96590.25
2022-11-06T06:36:50.650Z,96593.03
2022-11-06T06:39:20.437Z,96586.59
2022-11-06T06:41:49.174Z,96585.41
2022-11-06T06:44:17.924Z,96588.03
2022-11-06T06:46:47.587Z,96581.69
2022-11-06T06:49:15.959Z,96589.84
2022-11-06T06:51:44.232Z,96590.63
2022-11-06T06:54:12.547Z,96575.84
2022-11-06T06:56:40.841Z,96578.97
2022-11-06T06:59:09.665Z,96582.94
2022-11-06T07:01:38.142Z,96581.09
2022-11-06T07:04:08.095Z,96578.00
2022-11-06T07:06:36.370Z,96579.31
2022-11-06T07:09:04.938Z,96578.28
2022-11-06T07:11:33.207Z,96578.97
2022-11-06T07:14:01.690Z,96583.84
2022-11-06T07:16:32.446Z,96579.00
2022-11-06T07:19:00.707Z,96591.66
2022-11-06T07:21:30.329Z,96609.41
2022-11-06T07:23:58.791Z,96608.31
2022-11-06T07:26:27.138Z,96623.69
2022-11-06T07:28:55.419Z,96621.22
2022-11-06T07:31:24.198Z,96619.63
2022-11-06T07:33:52.491Z,96618.16
2022-11-06T07:36:22.119Z,96619.13
2022-11-06T07:38:51.782Z,96629.66
2022-11-06T07:41:21.087Z,96612.13
2022-11-06T07:43:50.396Z,96621.50
2022-11-06T07:46:18.710Z,96615.34
2022-11-06T07:48:47.067Z,96616.66
2022-11-06T07:51:15.356Z,96608.84
2022-11-06T07:53:43.622Z,96610.53
2022-11-06T07:56:13.445Z,96615.13
2022-11-06T07:58:41.969Z,96606.34
2022-11-06T08:01:18.623Z,96605.00
2022-11-06T08:03:47.433Z,96597.88
2022-11-06T08:06:15.771Z,96598.56
2022-11-06T08:08:44.148Z,96596.03
2022-11-06T08:11:14.374Z,96586.56
2022-11-06T08:13:44.078Z,96578.81
2022-11-06T08:16:14.305Z,96581.91
2022-11-06T08:18:43.083Z,96584.41
2022-11-06T08:21:11.432Z,96563.31
2022-11-06T08:23:39.719Z,96559.50
2022-11-06T08:26:08.311Z,96549.72
2022-11-06T08:28:38.010Z,96554.06
2022-11-06T08:31:06.761Z,96550.34
2022-11-06T08:33:35.633Z,96534.25
2022-11-06T08:36:05.234Z,96531.09
2022-11-06T08:38:33.707Z,96530.31
2022-11-06T08:41:05.863Z,96530.13
2022-11-06T08:43:34.373Z,96524.66
2022-11-06T08:46:04.667Z,96529.28
2022-11-06T08:48:34.543Z,96535.91
2022-11-06T08:51:02.932Z,96541.00
2022-11-06T08:53:31.361Z,96534.59
2022-11-06T08:55:59.909Z,96531.28
2022-11-06T08:58:28.214Z,96528.88
2022-11-06T09:00:56.551Z,96527.88
2022-11-06T09:03:26.333Z,96527.50
2022-11-06T09:05:54.637Z,96511.47
2022-11-06T09:08:24.214Z,96520.47
2022-11-06T09:10:58.175Z,96511.19
2022-11-06T09:13:27.414Z,96515.44
2022-11-06T09:15:55.793Z,96512.28
2022-11-06T09:18:24.111Z,96505.34
2022-11-06T09:20:57.007Z,96490.66
2022-11-06T09:23:25.690Z,96486.34
2022-11-06T09:25:54.172Z,96481.25
2022-11-06T09:28:22.486Z,96482.38
2022-11-06T09:30:50.899Z,96481.97
2022-11-06T09:33:19.651Z,96474.56
2022-11-06T09:35:48.333Z,96460.97
2022-11-06T09:38:19.110Z,96445.09
2022-11-06T09:40:50.748Z,96445.00
2022-11-06T09:44:02.866Z,96438.56
2022-11-06T09:46:24.131Z,96432.53
2022-11-06T09:48:56.688Z,96418.78
2022-11-06T09:51:32.780Z,96420.69
2022-11-06T09:54:08.543Z,96408.69
2022-11-06T09:56:39.960Z,96411.28
2022-11-06T09:59:13.149Z,96405.16
2022-11-06T10:01:44.085Z,96398.53
2022-11-06T10:04:33.632Z,96400.00
2022-11-06T10:07:01.919Z,96396.72
2022-11-06T10:09:32.138Z,96399.25
2022-11-06T10:12:05.988Z,96391.47
2022-11-06T10:14:45.332Z,96392.09
2022-11-06T10:17:21.240Z,96382.28
2022-11-06T10:19:51.436Z,96380.28
2022-11-06T10:22:22.723Z,96372.09
2022-11-06T10:25:00.061Z,96360.38
2022-11-06T10:27:29.809Z,96356.16
2022-11-06T10:30:11.009Z,96353.53
2022-11-06T10:33:03.164Z,96346.72
2022-11-06T10:35:35.719Z,96351.34
2022-11-06T10:38:07.552Z,96338.63
2022-11-06T10:40:37.890Z,96330.75
2022-11-06T10:43:15.776Z,96331.44
2022-11-06T10:45:48.558Z,96324.00
2022-11-06T10:48:28.982Z,96324.44
2022-11-06T10:51:09.713Z,96315.69
2022-11-06T10:53:47.207Z,96321.94
2022-11-06T10:56:47.970Z,96298.72
2022-11-06T10:59:16.171Z,96293.56
2022-11-06T11:01:44.586Z,96293.66
2022-11-06T11:04:13.050Z,96284.84
2022-11-06T11:06:41.594Z,96276.78
2022-11-06T11:09:30.338Z,96268.19
2022-11-06T11:12:00.673Z,96266.03
2022-11-06T11:14:30.344Z,96264.75
2022-11-06T11:17:01.455Z,96258.84
2022-11-06T11:19:37.371Z,96243.94
2022-11-06T11:22:18.122Z,96235.69
2022-11-06T11:25:00.863Z,96227.16
2022-11-06T11:27:31.146Z,96228.97
2022-11-06T11:29:59.622Z,96219.81
2022-11-06T11:32:30.442Z,96219.06
2022-11-06T11:34:59.427Z,96214.88
2022-11-06T11:37:29.477Z,96221.53
2022-11-06T11:40:21.875Z,96208.91
2022-11-06T11:42:51.603Z,96204.47
2022-11-06T11:45:21.281Z,96202.22
2022-11-06T11:47:51.375Z,96196.63
2022-11-06T11:50:31.262Z,96196.50
2022-11-06T11:53:08.818Z,96185.16
2022-11-06T11:55:42.092Z,96186.06
2022-11-06T11:58:21.297Z,96179.19
2022-11-06T12:00:54.151Z,96180.44
2022-11-06T12:03:24.064Z,96170.34
2022-11-06T12:05:53.471Z,96165.13
2022-11-06T12:08:25.465Z,96157.66
2022-11-06T12:10:53.781Z,96155.16
2022-11-06T12:13:24.804Z,96161.25
2022-11-06T12:15:56.707Z,96150.31
2022-11-06T12:18:28.098Z,96137.28
2022-11-06T12:20:59.192Z,96144.47
2022-11-06T12:23:30.923Z,96153.06
2022-11-06T12:26:03.083Z,96158.72
2022-11-06T12:28:34.050Z,96142.28
2022-11-06T12:31:05.894Z,96147.38
2022-11-06T12:34:04.548Z,96149.16
2022-11-06T12:36:27.181Z,96145.41
2022-11-06T12:38:58.247Z,96141.31
2022-11-06T12:41:28.221Z,96134.44
2022-11-06T12:43:58.485Z,96129.00
2022-11-06T12:46:37.187Z,96130.00
2022-11-06T12:49:23.398Z,96132.75
2022-11-06T12:52:00.733Z,96152.75
2022-11-06T12:54:40.614Z,96146.44
2022-11-06T12:57:16.937Z,96154.25
2022-11-06T12:59:56.170Z,96152.94
2022-11-06T13:02:33.127Z,96163.97
2022-11-06T13:05:03.449Z,96153.09
2022-11-06T13:07:39.812Z,96159.16
2022-11-06T13:10:21.256Z,96153.22
2022-11-06T13:12:59.727Z,96148.94
2022-11-06T13:15:33.651Z,96138.81
2022-11-06T13:18:08.802Z,96136.38
2022-11-06T13:20:43.385Z,96129.50
2022-11-06T13:23:14.621Z,96128.88
2022-11-06T13:25:50.506Z,96122.44
2022-11-06T13:28:31.320Z,96108.44
2022-11-06T13:31:03.756Z,96103.97
2022-11-06T13:33:35.966Z,96103.28
2022-11-06T13:36:04.600Z,96098.03
2022-11-06T13:38:37.447Z,96090.03
2022-11-06T13:41:12.905Z,96092.16
2022-11-06T13:43:44.997Z,96091.56
2022-11-06T13:46:23.505Z,96087.50
2022-11-06T13:48:57.269Z,96069.13
2022-11-06T13:51:33.913Z,96074.03
2022-11-06T13:54:04.691Z,96064.31
2022-11-06T13:57:00.745Z,96062.31
2022-11-06T13:59:53.506Z,96060.53
2022-11-06T14:02:39.722Z,96051.88
2022-11-06T14:05:24.272Z,96048.69
2022-11-06T14:07:53.033Z,96040.19
2022-11-06T14:10:23.553Z,96024.22
2022-11-06T14:12:52.208Z,96016.88
2022-11-06T14:15:27.151Z,96015.94
2022-11-06T14:17:59.257Z,96013.19
2022-11-06T14:20:30.332Z,96019.50
2022-11-06T14:23:32.103Z,96016.72
2022-11-06T14:26:01.463Z,96018.16
2022-11-06T14:28:31.928Z,96015.47
2022-11-06T14:31:21.552Z,96012.78
2022-11-06T14:34:05.200Z,96019.69
2022-11-06T14:36:36.246Z,96012.03
2022-11-06T14:39:05.362Z,96007.13
2022-11-06T14:42:06.193Z,96001.00
2022-11-06T14:44:35.198Z,95997.56
2022-11-06T14:47:04.880Z,95997.81
2022-11-06T14:49:42.078Z,96010.13
2022-11-06T14:52:13.095Z,96016.78
2022-11-06T14:54:42.651Z,96025.09
2022-11-06T14:57:16.506Z,96027.44
2022-11-06T14:59:44.866Z,96029.19
2022-11-06T15:02:19.687Z,96025.94
2022-11-06T15:04:51.366Z,96022.50
2022-11-06T15:08:08.596Z,96017.50
2022-11-06T15:10:54.271Z,96027.25
2022-11-06T15:13:31.232Z,96020.34
2022-11-06T15:16:13.503Z,96006.72
2022-11-06T15:18:44.260Z,96008.19
2022-11-06T15:21:22.622Z,95999.25
2022-11-06T15:24:02.905Z,96009.06
2022-11-06T15:26:35.323Z,96008.16
2022-11-06T15:29:12.853Z,96002.91
2022-11-06T15:31:41.982Z,95997.91
2022-11-06T15:34:15.986Z,96006.38
2022-11-06T15:36:49.246Z,95997.25
2022-11-06T15:39:34.096Z,95986.44
2022-11-06T15:42:02.424Z,95994.59
2022-11-06T15:44:30.644Z,95991.31
2022-11-06T15:47:00.155Z,95984.59
2022-11-06T15:49:28.439Z,95986.59
2022-11-06T15:51:59.392Z,95983.78
2022-11-06T15:54:36.116Z,95982.59
2022-11-06T15:57:08.748Z,95976.06
2022-11-06T15:59:37.055Z,95995.78
2022-11-06T16:02:06.240Z,95995.50
2022-11-06T16:04:34.835Z,96002.56
2022-11-06T16:07:05.713Z,96009.84
2022-11-06T16:09:34.343Z,96013.38
2022-11-06T16:12:02.868Z,96008.41
2022-11-06T16:14:31.138Z,96012.44
2022-11-06T16:17:09.937Z,96006.59
2022-11-06T16:19:39.492Z,96012.75
2022-11-06T16:22:10.923Z,96013.09
2022-11-06T16:24:44.554Z,96009.84
2022-11-06T16:27:13.170Z,96013.66
2022-11-06T16:29:47.382Z,96012.03
2022-11-06T16:32:17.506Z,96011.00
2022-11-06T16:34:47.124Z,96002.75
2022-11-06T16:37:40.729Z,96007.19
2022-11-06T16:40:53.637Z,96002.06
2022-11-06T16:43:22.692Z,96003.41
2022-11-06T16:46:02.748Z,96018.31
2022-11-06T16:48:34.661Z,96010.59
2022-11-06T16:51:08.254Z,96013.09
2022-11-06T16:53:52.878Z,96012.69
2022-11-06T16:56:25.341Z,96022.91
2022-11-06T16:59:01.142Z,96016.94
2022-11-06T17:01:30.760Z,96021.75
2022-11-06T17:04:01.085Z,96028.81
2022-11-06T17:06:30.989Z,96022.25
2022-11-06T17:09:08.795Z,96030.69
2022-11-06T17:11:38.840Z,96032.09
2022-11-06T17:14:17.289Z,96027.63
2022-11-06T17:16:46.982Z,96035.19
2022-11-06T17:19:15.317Z,96035.75
2022-11-06T17:21:43.604Z,96042.94
2022-11-06T17:27:01.575Z,96040.59
2022-11-06T17:29:29.868Z,96038.50
2022-11-06T17:31:58.170Z,96038.31
2022-11-06T17:34:26.492Z,96031.41
2022-11-06T17:36:54.803Z,96033.63
2022-11-06T17:39:24.454Z,96040.28
2022-11-06T17:41:53.561Z,96039.06
2022-11-06T17:44:22.402Z,96041.16
2022-11-06T17:46:50.958Z,96039.25
2022-11-06T17:49:19.242Z,96037.41
2022-11-06T17:51:53.315Z,96046.28
2022-11-06T17:54:25.389Z,96035.91
2022-11-06T17:56:54.788Z,96046.72
2022-11-06T17:59:23.948Z,96042.81
2022-11-06T18:01:52.935Z,96046.28
2022-11-06T18:04:23.418Z,96044.94
2022-11-06T18:06:53.527Z,96051.00
2022-11-06T18:09:24.355Z,96052.97
2022-11-06T18:11:53.812Z,96049.16
2022-11-06T18:14:23.617Z,96044.63
2022-11-06T18:16:52.351Z,96053.63
2022-11-06T18:19:23.364Z,96061.03
2022-11-06T18:21:51.849Z,96053.22
2022-11-06T18:24:20.179Z,96055.63
2022-11-06T18:26:49.982Z,96049.63
2022-11-06T18:29:18.656Z,96051.41
2022-11-06T18:31:46.962Z,96050.03
2022-11-06T18:34:20.240Z,96054.91
2022-11-06T18:36:50.116Z,96058.38
2022-11-06T18:39:18.685Z,96057.91
2022-11-06T18:41:47.011Z,96061.28
2022-11-06T18:44:17.963Z,96060.00
2022-11-06T18:46:46.639Z,96065.53
2022-11-06T18:49:15.777Z,96062.50
2022-11-06T18:51:44.284Z,96062.44
2022-11-06T18:54:13.324Z,96061.88
2022-11-06T18:56:41.780Z,96058.75
2022-11-06T18:59:14.584Z,96057.53
2022-11-06T19:01:44.386Z,96069.00
2022-11-06T19:04:12.863Z,96065.63
2022-11-06T19:06:41.379Z,96069.59
2022-11-06T19:09:10.973Z,96068.19
2022-11-06T19:11:39.626Z,96074.38
2022-11-06T19:14:08.142Z,96069.38
2022-11-06T19:16:36.528Z,96070.88
2022-11-06T19:19:07.466Z,96076.97
2022-11-06T19:21:35.876Z,96086.84
2022-11-06T19:24:05.849Z,96078.63
2022-11-06T19:26:35.747Z,96078.88
2022-11-06T19:29:05.357Z,96069.84
2022-11-06T19:31:34.226Z,96074.00
2022-11-06T19:34:03.642Z,96086.97
2022-11-06T19:36:33.421Z,96089.34
2022-11-06T19:39:02.112Z,96088.72
2022-11-06T19:41:30.761Z,96094.03
2022-11-06T19:43:59.077Z,96095.31
2022-11-06T19:46:34.006Z,96091.13
2022-11-06T19:49:04.193Z,96085.78
2022-11-06T19:51:34.897Z,96088.44
2022-11-06T19:54:02.968Z,96082.03
2022-11-06T19:56:31.223Z,96079.34
2022-11-06T19:59:00.014Z,96082.50
2022-11-06T20:01:28.380Z,96085.53
2022-11-06T20:03:56.818Z,96101.28
2022-11-06T20:06:27.380Z,96106.31
2022-11-06T20:08:56.919Z,96110.25
2022-11-06T20:11:25.113Z,96106.41
2022-11-06T20:13:53.442Z,96113.28
2022-11-06T20:16:22.068Z,96128.41
2022-11-06T20:18:54.010Z,96120.59
2022-11-06T20:21:23.191Z,96123.88
2022-11-06T20:23:51.496Z,96128.84
2022-11-06T20:26:21.682Z,96115.47
2022-11-06T20:28:51.390Z,96114.03
2022-11-06T20:31:20.425Z,96122.63
2022-11-06T20:33:49.607Z,96123.41
2022-11-06T20:36:20.486Z,96125.09
2022-11-06T20:38:48.773Z,96132.28
2022-11-06T20:41:17.869Z,96142.00
2022-11-06T20:43:48.215Z,96140.94
2022-11-06T20:46:17.588Z,96137.50
2022-11-06T20:48:46.521Z,96146.19
2022-11-06T20:51:17.513Z,96141.06
2022-11-06T20:53:46.379Z,96136.16
2022-11-06T20:56:17.105Z,96129.59
2022-11-06T20:58:46.921Z,96139.66
2022-11-06T21:01:19.731Z,96131.47
2022-11-06T21:03:49.558Z,96138.94
2022-11-06T21:06:18.740Z,96149.09
2022-11-06T21:08:47.668Z,96142.66
2022-11-06T21:11:18.107Z,96150.03
2022-11-06T21:13:49.422Z,96146.72
2022-11-06T21:16:19.638Z,96144.66
2022-11-06T21:18:48.291Z,96155.00
2022-11-06T21:21:18.305Z,96158.19
2022-11-06T21:23:46.571Z,96154.88
2022-11-06T21:26:16.447Z,96165.63
2022-11-06T21:28:45.167Z,96167.41
2022-11-06T21:31:17.514Z,96157.44
2022-11-06T21:33:47.390Z,96161.38
2022-11-06T21:36:17.431Z,96165.22
2022-11-06T21:38:45.748Z,96170.47
2022-11-06T21:41:16.279Z,96170.22
2022-11-06T21:43:44.916Z,96170.97
2022-11-06T21:46:15.012Z,96172.72
2022-11-06T21:48:47.711Z,96182.88
2022-11-06T21:51:17.655Z,96182.38
2022-11-06T21:54:03.529Z,96190.19
2022-11-06T21:56:31.833Z,96185.09
2022-11-06T21:59:01.866Z,96192.38
2022-11-06T22:01:32.443Z,96188.72
2022-11-06T22:04:00.913Z,96208.94
2022-11-06T22:06:29.883Z,96215.66
2022-11-06T22:08:59.294Z,96217.50
2022-11-06T22:11:29.096Z,96228.50
2022-11-06T22:13:58.955Z,96224.59
2022-11-06T22:16:28.567Z,96235.41
2022-11-06T22:18:59.332Z,96237.44
2022-11-06T22:21:29.474Z,96244.44
2022-11-06T22:23:58.333Z,96243.34
2022-11-06T22:26:29.073Z,96239.44
2022-11-06T22:28:58.694Z,96231.25
2022-11-06T22:31:27.753Z,96244.47
2022-11-06T22:33:56.173Z,96241.31
2022-11-06T22:36:26.245Z,96241.00
2022-11-06T22:38:54.590Z,96235.59
2022-11-06T22:41:24.836Z,96237.13
2022-11-06T22:43:53.550Z,96240.59
2022-11-06T22:46:23.139Z,96248.50
2022-11-06T22:48:52.769Z,96248.06
2022-11-06T22:51:23.055Z,96248.38
2022-11-06T22:56:38.722Z,96257.06
2022-11-06T22:59:08.822Z,96251.53
2022-11-06T23:01:41.924Z,96249.72
2022-11-06T23:04:14.877Z,96248.56
2022-11-06T23:06:43.858Z,96242.00
2022-11-06T23:09:14.042Z,96239.31
2022-11-06T23:11:42.336Z,96238.06
2022-11-06T23:14:10.679Z,96244.47
2022-11-06T23:16:56.537Z,96237.13
2022-11-06T23:19:25.213Z,96239.41
2022-11-06T23:22:13.633Z,96229.63
2022-11-06T23:24:43.635Z,96239.00
2022-11-06T23:27:12.432Z,96241.44
2022-11-06T23:29:41.047Z,96240.91
2022-11-06T23:32:09.391Z,96242.00
2022-11-06T23:34:37.799Z,96245.81
2022-11-06T23:37:06.244Z,96249.50
2022-11-06T23:39:34.544Z,96248.34
2022-11-06T23:42:04.248Z,96250.44
2022-11-06T23:44:50.217Z,96244.56
2022-11-06T23:47:18.766Z,96247.00
2022-11-06T23:49:47.497Z,96244.19
2022-11-06T23:52:15.834Z,96248.88
2022-11-06T23:54:44.073Z,96234.16
2022-11-06T23:57:14.162Z,96244.00
2022-11-06T23:59:42.460Z,96244.00
